Time;durP1;ratioP1;P1;durP2;ratioP2;P2;SDS_P1;SDS_P2;PMS_P1;PMS_P2;Temp;Humidity;BMP_temperature;BMP_pressure;BME280_temperature;BME280_humidity;BME280_pressure;Samples;Min_cycle;Max_cycle;Signal;HPM_P1;HPM_P2
2021/07/10 00:01:16;;;;;;;30.73;23.57;;;15.60;93.20;;;;;;5112964;28;20058;-66
2021/07/10 00:03:42;;;;;;;31.20;24.10;;;15.60;93.30;;;;;;5112394;28;20051;-66
2021/07/10 00:06:08;;;;;;;32.00;25.50;;;15.60;93.30;;;;;;5112011;28;20130;-66
2021/07/10 00:08:34;;;;;;;26.33;22.33;;;15.60;93.30;;;;;;5112290;28;20048;-66
2021/07/10 00:11:00;;;;;;;28.43;24.20;;;15.60;93.30;;;;;;5111757;28;20043;-65
2021/07/10 00:13:26;;;;;;;30.20;23.27;;;15.60;93.40;;;;;;5112544;28;20108;-66
2021/07/10 00:15:52;;;;;;;32.33;25.20;;;15.60;93.40;;;;;;5112342;28;20079;-65
2021/07/10 00:18:18;;;;;;;36.00;26.63;;;15.50;93.40;;;;;;5111317;28;20071;-65
2021/07/10 00:20:44;;;;;;;34.93;26.03;;;15.60;93.50;;;;;;5112425;28;20047;-66
2021/07/10 00:23:10;;;;;;;35.17;26.47;;;15.50;93.50;;;;;;5111865;28;20062;-65
2021/07/10 00:25:36;;;;;;;31.77;24.70;;;15.50;93.50;;;;;;5112078;28;20085;-66
2021/07/10 00:28:02;;;;;;;33.83;26.60;;;15.50;93.50;;;;;;5112454;28;20131;-65
2021/07/10 00:30:28;;;;;;;33.70;26.80;;;15.50;93.50;;;;;;5111927;28;20071;-65
2021/07/10 00:32:54;;;;;;;41.07;28.50;;;15.50;93.40;;;;;;5111328;28;20082;-66
2021/07/10 00:35:20;;;;;;;38.03;26.63;;;15.50;93.40;;;;;;5111625;28;20145;-65
2021/07/10 00:37:46;;;;;;;38.87;28.17;;;15.50;93.40;;;;;;5111765;28;20399;-65
2021/07/10 00:40:13;;;;;;;36.43;28.40;;;15.50;93.50;;;;;;5110842;28;20079;-65
2021/07/10 00:42:40;;;;;;;34.77;26.47;;;15.50;93.50;;;;;;5111970;28;20043;-65
2021/07/10 00:45:09;;;;;;;36.00;27.40;;;15.50;93.50;;;;;;5111829;28;20124;-65
2021/07/10 00:47:36;;;;;;;31.53;25.20;;;15.50;93.60;;;;;;5111006;28;20051;-65
2021/07/10 00:50:18;;;;;;;35.13;27.57;;;15.60;93.60;;;;;;5112026;28;20048;-65
2021/07/10 00:52:44;;;;;;;40.40;29.80;;;15.60;93.70;;;;;;5111844;28;20053;-65
2021/07/10 00:55:12;;;;;;;40.13;29.23;;;15.60;93.70;;;;;;5110962;28;20424;-65
2021/07/10 00:57:39;;;;;;;40.27;30.97;;;15.60;93.70;;;;;;5111905;28;20058;-66
2021/07/10 01:00:09;;;;;;;36.23;27.97;;;15.60;93.70;;;;;;5111816;28;20100;-65
2021/07/10 01:02:35;;;;;;;41.00;30.10;;;15.60;93.70;;;;;;5111149;28;20095;-66
2021/07/10 01:05:05;;;;;;;45.03;31.00;;;15.60;93.60;;;;;;5111540;28;20087;-66
2021/07/10 01:07:30;;;;;;;46.17;30.73;;;15.70;93.60;;;;;;5111026;28;20092;-66
2021/07/10 01:09:56;;;;;;;36.03;27.93;;;15.70;93.60;;;;;;5112023;28;20139;-66
2021/07/10 01:12:22;;;;;;;43.80;32.60;;;15.60;93.50;;;;;;5111469;28;20047;-66
2021/07/10 01:14:47;;;;;;;44.67;31.30;;;15.60;93.50;;;;;;5110820;28;20111;-66
2021/07/10 01:17:13;;;;;;;41.30;30.70;;;15.60;93.50;;;;;;5110915;28;20067;-66
2021/07/10 01:19:38;;;;;;;41.40;30.53;;;15.60;93.50;;;;;;5111255;28;20055;-66
2021/07/10 01:22:08;;;;;;;42.90;30.80;;;15.60;93.50;;;;;;5110818;28;20055;-66
2021/07/10 01:24:34;;;;;;;46.37;32.90;;;15.60;93.60;;;;;;5111032;28;20134;-66
2021/07/10 01:27:00;;;;;;;44.57;32.00;;;15.50;93.60;;;;;;5111726;28;20048;-66
2021/07/10 01:29:28;;;;;;;46.73;33.80;;;15.50;93.60;;;;;;5110545;28;20043;-66
2021/07/10 01:31:58;;;;;;;44.37;31.40;;;15.50;93.60;;;;;;5111419;28;20504;-66
2021/07/10 01:34:23;;;;;;;48.03;34.63;;;15.40;93.60;;;;;;5112221;28;20154;-66
2021/07/10 01:36:49;;;;;;;40.07;29.70;;;15.50;93.70;;;;;;5114799;28;20465;-66
2021/07/10 01:39:15;;;;;;;49.70;34.77;;;15.40;93.70;;;;;;5115220;28;20055;-66
2021/07/10 01:41:46;;;;;;;44.63;32.57;;;15.30;93.70;;;;;;5115360;28;20051;-66
2021/07/10 01:44:12;;;;;;;51.92;34.92;;;15.30;93.80;;;;;;5114365;28;20043;-66
2021/07/10 01:46:38;;;;;;;44.00;31.60;;;15.20;93.80;;;;;;5115684;28;20567;-65
2021/07/10 01:49:04;;;;;;;37.53;27.30;;;15.30;93.90;;;;;;5115494;28;20055;-65
2021/07/10 01:51:30;;;;;;;46.20;32.50;;;15.20;93.90;;;;;;5114168;28;20456;-65
2021/07/10 01:53:56;;;;;;;45.53;29.97;;;15.10;93.90;;;;;;5114971;28;20044;-64
2021/07/10 01:56:21;;;;;;;48.53;33.07;;;15.10;94.00;;;;;;5114831;28;20571;-65
2021/07/10 01:58:47;;;;;;;46.93;33.40;;;15.10;94.00;;;;;;5114290;28;20134;-64
2021/07/10 02:01:12;;;;;;;40.87;29.47;;;15.00;94.10;;;;;;5114575;28;20048;-65
2021/07/10 02:03:38;;;;;;;47.77;32.50;;;15.00;94.10;;;;;;5114440;28;20048;-65
2021/07/10 02:06:04;;;;;;;53.03;34.17;;;15.00;94.10;;;;;;5115350;28;20134;-65
2021/07/10 02:08:29;;;;;;;46.60;32.57;;;15.00;94.10;;;;;;5114709;28;20193;-65
2021/07/10 02:10:55;;;;;;;48.70;32.53;;;14.90;94.10;;;;;;5113898;28;20056;-65
2021/07/10 02:13:21;;;;;;;43.20;30.57;;;14.90;94.10;;;;;;5114946;28;20449;-65
2021/07/10 02:15:46;;;;;;;48.53;32.33;;;14.90;94.20;;;;;;5114571;28;20056;-65
2021/07/10 02:18:15;;;;;;;44.90;31.83;;;14.90;94.20;;;;;;5113589;28;20077;-65
2021/07/10 02:20:41;;;;;;;45.37;30.53;;;14.90;94.20;;;;;;5114614;28;20484;-65
2021/07/10 02:23:06;;;;;;;46.43;31.23;;;14.80;94.20;;;;;;5114775;28;20036;-65
2021/07/10 02:25:33;;;;;;;51.07;33.13;;;14.80;94.20;;;;;;5113644;28;20509;-65
2021/07/10 02:27:59;;;;;;;43.07;30.50;;;14.80;94.20;;;;;;5114575;28;20116;-65
2021/07/10 02:30:28;;;;;;;50.23;31.63;;;14.80;94.20;;;;;;5114340;28;20480;-65
2021/07/10 02:32:58;;;;;;;50.17;34.93;;;14.80;94.30;;;;;;5113865;28;20055;-65
2021/07/10 02:35:24;;;;;;;52.53;34.77;;;14.80;94.30;;;;;;5114490;28;20432;-65
2021/07/10 02:37:51;;;;;;;53.47;33.30;;;14.80;94.30;;;;;;5114434;28;20051;-65
2021/07/10 02:40:18;;;;;;;51.07;32.57;;;14.80;94.40;;;;;;5113776;28;20074;-65
2021/07/10 02:42:44;;;;;;;51.57;34.77;;;14.80;94.40;;;;;;5114051;28;20150;-65
2021/07/10 02:45:11;;;;;;;50.10;32.43;;;14.80;94.40;;;;;;5113589;28;20047;-65
2021/07/10 02:47:39;;;;;;;51.20;31.97;;;14.70;94.50;;;;;;5113911;28;20130;-65
2021/07/10 02:50:08;;;;;;;50.83;34.03;;;14.70;94.50;;;;;;5114565;28;20349;-65
2021/07/10 02:52:34;;;;;;;48.77;32.20;;;14.70;94.70;;;;;;5114120;28;20134;-65
2021/07/10 02:55:00;;;;;;;45.17;32.33;;;14.70;94.70;;;;;;5113019;28;20119;-65
2021/07/10 02:57:25;;;;;;;42.20;29.23;;;14.70;94.70;;;;;;5113828;28;20381;-65
2021/07/10 02:59:51;;;;;;;47.80;29.87;;;14.60;94.50;;;;;;5113621;28;20051;-65
2021/07/10 03:02:17;;;;;;;42.50;29.40;;;14.60;94.50;;;;;;5113421;28;20048;-65
2021/07/10 03:04:43;;;;;;;42.73;28.43;;;14.50;94.50;;;;;;5113721;28;20040;-65
2021/07/10 03:07:09;;;;;;;41.13;27.27;;;14.50;94.50;;;;;;5112674;28;20055;-65
2021/07/10 03:09:35;;;;;;;41.77;28.87;;;14.40;94.50;;;;;;5113559;28;20054;-65
2021/07/10 03:12:01;;;;;;;43.27;28.90;;;14.50;94.60;;;;;;5113800;28;20051;-65
2021/07/10 03:14:26;;;;;;;38.73;27.17;;;14.40;94.50;;;;;;5112389;28;20040;-65
2021/07/10 03:16:52;;;;;;;41.97;27.93;;;14.40;94.50;;;;;;5113430;28;20218;-65
2021/07/10 03:19:18;;;;;;;41.73;28.83;;;14.30;94.50;;;;;;5113436;28;20070;-65
2021/07/10 03:21:43;;;;;;;41.87;27.97;;;14.30;94.50;;;;;;5112532;28;20629;-65
2021/07/10 03:24:09;;;;;;;43.43;29.63;;;14.20;94.50;;;;;;5113140;28;20052;-65
2021/07/10 03:26:35;;;;;;;44.13;29.30;;;14.20;94.70;;;;;;5113412;28;20406;-65
2021/07/10 03:29:01;;;;;;;45.60;30.17;;;14.20;94.70;;;;;;5112894;28;20051;-65
2021/07/10 03:31:27;;;;;;;44.30;29.77;;;14.20;94.80;;;;;;5112941;28;20047;-65
2021/07/10 03:33:53;;;;;;;45.57;31.53;;;14.20;94.80;;;;;;5113132;28;20104;-65
2021/07/10 03:36:18;;;;;;;48.23;32.60;;;14.20;94.70;;;;;;5112059;28;20056;-65
2021/07/10 03:38:45;;;;;;;51.10;31.50;;;14.10;94.70;;;;;;5113073;28;20471;-65
2021/07/10 03:41:12;;;;;;;46.37;30.53;;;14.10;94.80;;;;;;5112351;28;20071;-66
2021/07/10 03:43:39;;;;;;;41.57;28.07;;;14.10;94.80;;;;;;5112649;28;20080;-65
2021/07/10 03:46:05;;;;;;;42.23;29.87;;;14.00;94.90;;;;;;5113210;28;20468;-65
2021/07/10 03:48:31;;;;;;;46.20;31.80;;;14.00;94.80;;;;;;5112672;28;20055;-66
2021/07/10 03:50:58;;;;;;;48.07;31.60;;;14.00;94.80;;;;;;5111974;28;20392;-65
2021/07/10 03:53:24;;;;;;;49.23;32.37;;;14.00;94.80;;;;;;5112591;28;20043;-65
2021/07/10 03:55:52;;;;;;;51.37;31.37;;;13.90;94.90;;;;;;5112796;28;20495;-65
2021/07/10 03:58:18;;;;;;;50.33;30.63;;;13.90;94.90;;;;;;5111326;28;20207;-65
2021/07/10 04:00:44;;;;;;;48.10;30.40;;;13.90;95.00;;;;;;5112618;28;20555;-65
2021/07/10 04:03:09;;;;;;;44.90;29.70;;;13.90;95.10;;;;;;5111874;28;20052;-66
2021/07/10 04:05:35;;;;;;;38.57;26.47;;;13.90;95.10;;;;;;5112853;28;20507;-65
2021/07/10 04:08:01;;;;;;;41.83;27.00;;;13.90;95.10;;;;;;5112327;28;20484;-65
2021/07/10 04:10:27;;;;;;;47.73;31.23;;;13.90;95.10;;;;;;5111321;28;20071;-65
2021/07/10 04:12:53;;;;;;;42.53;28.27;;;13.90;95.20;;;;;;5112571;28;20116;-65
2021/07/10 04:15:19;;;;;;;38.17;25.97;;;14.00;95.20;;;;;;5112004;28;20472;-65
2021/07/10 04:17:45;;;;;;;46.27;30.90;;;14.00;95.60;;;;;;5111999;28;20483;-65
2021/07/10 04:20:12;;;;;;;43.30;29.03;;;14.00;95.20;;;;;;5111822;28;20468;-66
2021/07/10 04:22:39;;;;;;;37.70;26.80;;;14.10;95.20;;;;;;5112135;28;20067;-65
2021/07/10 04:25:08;;;;;;;37.87;27.30;;;14.10;95.20;;;;;;5111206;28;20048;-65
2021/07/10 04:27:38;;;;;;;41.37;28.33;;;14.20;95.20;;;;;;5112874;28;20040;-66
2021/07/10 04:30:06;;;;;;;36.43;26.33;;;14.20;95.20;;;;;;5112016;28;20143;-66
2021/07/10 04:32:32;;;;;;;40.50;29.37;;;14.30;95.10;;;;;;5111600;28;20051;-66
2021/07/10 04:34:58;;;;;;;37.83;28.17;;;14.40;95.60;;;;;;5111848;28;20048;-66
2021/07/10 04:37:23;;;;;;;44.10;30.00;;;14.40;95.10;;;;;;5111534;28;20070;-66
2021/07/10 04:39:49;;;;;;;44.37;29.43;;;14.50;95.00;;;;;;5110942;28;20447;-66
2021/07/10 04:42:15;;;;;;;41.47;28.30;;;14.60;94.90;;;;;;5111630;28;20044;-66
2021/07/10 04:44:41;;;;;;;41.30;30.13;;;14.70;94.80;;;;;;5111917;28;20043;-65
2021/07/10 04:47:06;;;;;;;37.37;26.57;;;14.80;94.80;;;;;;5110941;28;20089;-66
2021/07/10 04:49:32;;;;;;;41.63;29.53;;;14.90;94.80;;;;;;5111314;28;20058;-66
2021/07/10 04:51:58;;;;;;;40.70;28.13;;;14.90;94.70;;;;;;5111767;28;20525;-66
2021/07/10 04:54:23;;;;;;;36.73;27.03;;;15.00;94.70;;;;;;5110447;28;20047;-66
2021/07/10 04:56:49;;;;;;;33.80;24.57;;;15.00;94.50;;;;;;5111554;28;20605;-66
2021/07/10 04:59:14;;;;;;;39.00;28.50;;;15.00;94.50;;;;;;5111435;28;20146;-66
2021/07/10 05:01:40;;;;;;;41.57;28.53;;;15.10;94.50;;;;;;5111176;28;20051;-66
2021/07/10 05:04:06;;;;;;;42.20;30.80;;;15.00;94.50;;;;;;5111614;28;20051;-66
2021/07/10 05:06:32;;;;;;;49.27;32.30;;;15.10;94.60;;;;;;5110506;28;20415;-65
2021/07/10 05:08:57;;;;;;;48.60;32.53;;;15.10;94.60;;;;;;5112430;28;20056;-66
2021/07/10 05:11:23;;;;;;;46.73;32.20;;;15.20;94.60;;;;;;5115680;28;20073;-66
2021/07/10 05:13:48;;;;;;;44.70;30.70;;;15.20;94.60;;;;;;5115257;28;20468;-66
2021/07/10 05:16:14;;;;;;;39.47;28.73;;;15.20;94.50;;;;;;5115388;28;20060;-66
2021/07/10 05:18:40;;;;;;;47.07;32.40;;;15.30;94.50;;;;;;5115558;28;20047;-66
2021/07/10 05:21:06;;;;;;;43.13;31.80;;;15.30;94.50;;;;;;5114823;28;20415;-65
2021/07/10 05:23:32;;;;;;;43.80;31.17;;;15.40;94.40;;;;;;5115245;28;20437;-65
2021/07/10 05:25:57;;;;;;;40.47;30.73;;;15.50;94.30;;;;;;5115675;28;20068;-66
2021/07/10 05:28:23;;;;;;;41.33;30.27;;;15.60;94.10;;;;;;5114615;28;20066;-65
2021/07/10 05:30:50;;;;;;;41.47;29.60;;;15.60;94.00;;;;;;5115492;28;20096;-65
2021/07/10 05:33:16;;;;;;;35.23;27.30;;;15.70;94.00;;;;;;5115173;28;20089;-64
2021/07/10 05:35:45;;;;;;;37.73;29.47;;;15.70;93.90;;;;;;5114757;28;20047;-65
2021/07/10 05:38:11;;;;;;;41.40;29.53;;;15.70;93.80;;;;;;5115459;28;20415;-65
2021/07/10 05:40:37;;;;;;;42.50;30.17;;;15.80;93.90;;;;;;5115429;28;20043;-66
2021/07/10 05:43:03;;;;;;;38.50;27.20;;;16.00;93.90;;;;;;5114463;28;20121;-66
2021/07/10 05:45:29;;;;;;;35.20;27.17;;;16.20;93.50;;;;;;5114981;28;20079;-66
2021/07/10 05:47:55;;;;;;;34.70;26.40;;;16.30;93.30;;;;;;5115012;28;20126;-66
2021/07/10 05:50:20;;;;;;;32.33;26.37;;;16.40;93.20;;;;;;5113732;28;20048;-66
2021/07/10 05:52:46;;;;;;;34.10;27.60;;;16.40;93.20;;;;;;5114906;28;20082;-66
2021/07/10 05:55:12;;;;;;;34.87;27.17;;;16.40;93.20;;;;;;5114629;28;20138;-66
2021/07/10 05:57:38;;;;;;;39.87;30.37;;;16.40;93.20;;;;;;5113994;28;20043;-66
2021/07/10 06:00:11;;;;;;;37.57;29.07;;;16.40;93.20;;;;;;5114740;28;20052;-66
2021/07/10 06:02:38;;;;;;;35.77;29.53;;;16.50;93.30;;;;;;5114409;28;20047;-66
2021/07/10 06:05:06;;;;;;;34.20;28.27;;;16.60;93.30;;;;;;5113884;28;20079;-66
2021/07/10 06:07:31;;;;;;;31.70;24.77;;;16.60;93.20;;;;;;5114455;28;20050;-66
2021/07/10 06:09:57;;;;;;;30.97;26.27;;;16.70;93.20;;;;;;5113385;28;20039;-66
2021/07/10 06:12:23;;;;;;;34.03;26.87;;;16.70;93.20;;;;;;5114201;28;20051;-66
2021/07/10 06:14:49;;;;;;;32.70;26.97;;;16.80;93.10;;;;;;5114116;28;20092;-66
2021/07/10 06:17:14;;;;;;;33.37;25.47;;;16.80;93.00;;;;;;5113106;28;20127;-65
2021/07/10 06:19:40;;;;;;;31.57;26.07;;;16.90;93.00;;;;;;5113359;28;20050;-66
2021/07/10 06:22:06;;;;;;;30.30;26.50;;;16.90;92.90;;;;;;5114285;28;20052;-65
2021/07/10 06:24:32;;;;;;;34.33;25.20;;;16.90;92.80;;;;;;5113427;28;20051;-66
2021/07/10 06:27:00;;;;;;;35.33;26.83;;;16.90;92.70;;;;;;5114371;28;20051;-65
2021/07/10 06:29:26;;;;;;;31.33;26.40;;;17.00;92.80;;;;;;5113622;28;20445;-65
2021/07/10 06:31:52;;;;;;;29.47;25.80;;;17.00;92.70;;;;;;5113510;28;20048;-65
2021/07/10 06:34:18;;;;;;;36.57;27.50;;;17.00;92.50;;;;;;5113936;28;20044;-66
2021/07/10 06:36:44;;;;;;;35.57;28.20;;;17.10;92.30;;;;;;5113950;28;20043;-66
2021/07/10 06:39:09;;;;;;;29.90;25.27;;;17.10;92.20;;;;;;5112853;28;20415;-66
2021/07/10 06:41:37;;;;;;;30.80;26.53;;;17.10;92.00;;;;;;5114135;28;20553;-66
2021/07/10 06:44:05;;;;;;;30.27;26.90;;;17.20;91.90;;;;;;5113941;28;20058;-66
2021/07/10 06:46:31;;;;;;;29.37;25.83;;;17.20;91.80;;;;;;5112856;28;20085;-66
2021/07/10 06:48:57;;;;;;;29.17;23.43;;;17.30;91.50;;;;;;5113626;28;20056;-66
2021/07/10 06:51:22;;;;;;;28.70;24.57;;;17.30;91.30;;;;;;5113668;28;20075;-66
2021/07/10 06:53:48;;;;;;;24.13;21.10;;;17.30;91.20;;;;;;5112875;28;20059;-66
2021/07/10 06:56:13;;;;;;;26.73;21.70;;;17.40;91.00;;;;;;5113535;28;20461;-66
2021/07/10 06:58:39;;;;;;;26.47;22.50;;;17.40;90.80;;;;;;5112996;28;20040;-65
2021/07/10 07:01:05;;;;;;;28.83;23.57;;;17.50;90.70;;;;;;5112669;28;20130;-66
2021/07/10 07:03:31;;;;;;;30.27;26.57;;;17.60;90.70;;;;;;5112317;28;20040;-66
2021/07/10 07:05:58;;;;;;;28.97;24.70;;;17.60;90.60;;;;;;5112571;28;20048;-66
2021/07/10 07:08:24;;;;;;;25.40;21.60;;;17.70;90.50;;;;;;5112299;28;20046;-66
2021/07/10 07:10:49;;;;;;;25.43;21.67;;;17.80;90.40;;;;;;5112676;28;20044;-66
2021/07/10 07:13:15;;;;;;;22.43;20.03;;;17.70;90.10;;;;;;5111762;28;20036;-66
2021/07/10 07:15:41;;;;;;;24.17;21.03;;;17.80;90.00;;;;;;5112398;28;20444;-66
2021/07/10 07:18:07;;;;;;;28.10;22.50;;;17.80;89.40;;;;;;5112250;28;20126;-67
2021/07/10 07:20:33;;;;;;;27.00;23.57;;;17.80;89.10;;;;;;5111622;28;20506;-67
2021/07/10 07:22:59;;;;;;;25.77;21.03;;;17.80;88.70;;;;;;5112385;28;20054;-67
2021/07/10 07:25:25;;;;;;;25.97;22.90;;;17.90;88.20;;;;;;5112259;28;20096;-67
2021/07/10 07:27:52;;;;;;;27.60;22.90;;;17.90;88.50;;;;;;5111357;28;20040;-67
2021/07/10 07:30:19;;;;;;;27.50;22.53;;;17.90;89.30;;;;;;5111996;28;20062;-64
2021/07/10 07:32:48;;;;;;;27.07;24.17;;;18.00;88.40;;;;;;5108404;28;20136;-64
2021/07/10 07:35:17;;;;;;;29.83;23.95;;;18.00;88.30;;;;;;5111146;28;20108;-65
2021/07/10 07:37:43;;;;;;;28.03;23.37;;;18.10;88.40;;;;;;5111861;28;20117;-64
2021/07/10 07:40:14;;;;;;;22.27;19.07;;;18.10;88.10;;;;;;5111853;28;20052;-64
2021/07/10 07:42:40;;;;;;;20.20;16.33;;;18.10;86.80;;;;;;5112457;28;20044;-65
2021/07/10 07:45:07;;;;;;;22.03;19.53;;;18.10;86.20;;;;;;5112465;28;20100;-65
2021/07/10 07:47:34;;;;;;;22.17;18.27;;;18.10;86.00;;;;;;5112681;28;20048;-65
2021/07/10 07:50:00;;;;;;;23.30;18.87;;;18.10;86.10;;;;;;5111665;28;20108;-65
2021/07/10 07:52:26;;;;;;;20.07;17.40;;;18.00;86.20;;;;;;5112120;28;20163;-65
2021/07/10 07:54:51;;;;;;;18.20;15.53;;;18.10;86.50;;;;;;5112579;28;20365;-65
2021/07/10 07:57:17;;;;;;;19.90;15.87;;;18.10;86.10;;;;;;5111518;28;20043;-65
2021/07/10 07:59:42;;;;;;;19.73;15.63;;;18.10;86.10;;;;;;5111991;28;20078;-65
2021/07/10 08:02:09;;;;;;;16.77;13.90;;;18.10;85.80;;;;;;5112364;28;20096;-66
2021/07/10 08:04:35;;;;;;;15.50;13.90;;;18.10;85.80;;;;;;5111792;28;20054;-65
2021/07/10 08:07:02;;;;;;;15.20;13.43;;;18.20;85.10;;;;;;5111667;28;20149;-65
2021/07/10 08:09:28;;;;;;;16.27;14.60;;;18.20;84.90;;;;;;5110740;28;20475;-65
2021/07/10 08:11:55;;;;;;;19.57;16.60;;;18.20;85.10;;;;;;5111749;28;20048;-65
2021/07/10 08:14:22;;;;;;;23.73;18.40;;;18.30;85.20;;;;;;5111416;28;20187;-65
2021/07/10 08:16:48;;;;;;;21.27;18.00;;;18.30;85.30;;;;;;5111015;28;20361;-65
2021/07/10 08:19:18;;;;;;;21.00;17.97;;;18.20;85.70;;;;;;5110903;28;20043;-66
2021/07/10 08:21:45;;;;;;;22.47;18.60;;;18.30;86.10;;;;;;5111994;28;20458;-65
2021/07/10 08:24:11;;;;;;;21.07;17.37;;;18.20;86.20;;;;;;5110647;28;20051;-65
2021/07/10 08:26:37;;;;;;;22.20;18.37;;;18.20;86.40;;;;;;5111820;28;20044;-65
2021/07/10 08:29:03;;;;;;;21.03;16.80;;;18.20;86.70;;;;;;5111558;28;20055;-65
2021/07/10 08:31:29;;;;;;;20.23;16.40;;;18.20;86.90;;;;;;5110764;28;20472;-65
2021/07/10 08:33:55;;;;;;;20.53;16.97;;;18.20;87.20;;;;;;5111336;28;20055;-65
2021/07/10 08:36:21;;;;;;;19.60;15.50;;;18.20;87.10;;;;;;5111301;28;20066;-65
2021/07/10 08:38:46;;;;;;;14.93;13.33;;;18.30;86.90;;;;;;5110621;28;20441;-65
2021/07/10 08:41:12;;;;;;;17.23;13.70;;;18.30;86.50;;;;;;5111355;28;20044;-65
2021/07/10 08:43:39;;;;;;;18.50;13.70;;;18.30;86.30;;;;;;5111717;28;20052;-65
2021/07/10 08:46:06;;;;;;;13.37;11.60;;;18.40;86.00;;;;;;5111049;28;20051;-65
2021/07/10 08:48:34;;;;;;;15.17;12.53;;;18.40;85.70;;;;;;5111419;28;20482;-65
2021/07/10 08:51:03;;;;;;;14.37;12.83;;;18.40;85.00;;;;;;5111496;28;20039;-65
2021/07/10 08:53:29;;;;;;;13.17;11.03;;;18.40;84.30;;;;;;5110569;28;20505;-65
2021/07/10 08:55:55;;;;;;;13.50;11.93;;;18.40;84.40;;;;;;5111404;28;20099;-65
2021/07/10 08:58:21;;;;;;;12.93;10.40;;;18.50;84.50;;;;;;5111404;28;20052;-65
2021/07/10 09:00:48;;;;;;;10.97;9.33;;;18.50;84.30;;;;;;5110926;28;20411;-65
2021/07/10 09:03:15;;;;;;;11.33;9.27;;;18.50;84.00;;;;;;5111116;28;20050;-65
2021/07/10 09:05:41;;;;;;;13.70;11.07;;;18.50;84.10;;;;;;5110718;28;20193;-66
2021/07/10 09:08:30;;;;;;;10.83;9.67;;;18.50;84.30;;;;;;5111290;28;20067;-65
2021/07/10 09:11:14;;;;;;;13.53;12.13;;;18.60;83.30;;;;;;5102516;28;20052;-65
2021/07/10 09:13:48;;;;;;;11.20;9.70;;;18.80;83.10;;;;;;5110935;28;20067;-65
2021/07/10 09:16:16;;;;;;;12.20;10.60;;;18.90;82.90;;;;;;5110627;28;20067;-65
2021/07/10 09:18:47;;;;;;;13.77;10.53;;;19.10;82.90;;;;;;5111325;28;20167;-66
2021/07/10 09:21:33;;;;;;;15.48;12.27;;;19.30;81.90;;;;;;5110466;28;20046;-66
2021/07/10 09:24:00;;;;;;;13.37;11.73;;;19.30;80.40;;;;;;5111287;28;20043;-66
2021/07/10 09:26:26;;;;;;;16.00;12.93;;;19.30;80.60;;;;;;5110654;28;20051;-66
2021/07/10 09:28:58;;;;;;;15.13;12.27;;;19.30;80.00;;;;;;5110427;28;20040;-66
2021/07/10 09:31:26;;;;;;;13.57;12.13;;;19.40;79.70;;;;;;5110695;28;20055;-66
2021/07/10 09:34:04;;;;;;;15.07;12.13;;;19.40;79.20;;;;;;5110454;28;20127;-66
2021/07/10 09:36:32;;;;;;;12.93;10.50;;;19.50;79.30;;;;;;5110709;28;20117;-66
2021/07/10 09:38:58;;;;;;;11.73;10.33;;;19.70;80.10;;;;;;5110859;28;20071;-65
2021/07/10 09:41:31;;;;;;;12.73;11.20;;;19.80;79.30;;;;;;5109795;28;20138;-65
2021/07/10 09:44:12;;;;;;;11.27;9.67;;;19.90;78.50;;;;;;5110611;28;20071;-66
2021/07/10 09:46:39;;;;;;;9.70;8.48;;;20.00;78.30;;;;;;5110781;28;20499;-65
2021/07/10 09:49:27;;;;;;;11.20;8.80;;;19.90;78.40;;;;;;5110060;28;20059;-65
2021/07/10 09:52:05;;;;;;;10.33;8.23;;;19.90;77.60;;;;;;5110513;28;20416;-66
2021/07/10 09:54:40;;;;;;;9.70;7.70;;;19.80;76.60;;;;;;5110977;28;20078;-65
2021/07/10 09:57:34;;;;;;;9.07;8.17;;;19.70;76.80;;;;;;5114295;28;20135;-65
2021/07/10 10:00:14;;;;;;;9.10;8.20;;;19.60;76.90;;;;;;5112394;28;20058;-66
2021/07/10 10:02:50;;;;;;;10.07;7.93;;;19.50;76.70;;;;;;5113792;27;20047;-65
2021/07/10 10:05:18;;;;;;;9.47;8.10;;;19.50;76.70;;;;;;5113323;27;20048;-65
2021/07/10 10:07:46;;;;;;;8.87;7.97;;;19.50;76.70;;;;;;5112056;28;20093;-65
2021/07/10 10:10:23;;;;;;;9.40;7.77;;;19.50;77.10;;;;;;5112310;28;20074;-65
2021/07/10 10:13:09;;;;;;;9.33;8.13;;;19.50;76.20;;;;;;5112676;28;20060;-65
2021/07/10 10:15:39;;;;;;;9.17;7.70;;;19.50;76.40;;;;;;5113049;28;20417;-66
2021/07/10 10:18:06;;;;;;;12.77;9.37;;;19.50;76.50;;;;;;5112706;27;20116;-65
2021/07/10 10:20:32;;;;;;;11.93;8.93;;;19.40;76.10;;;;;;5113801;28;20396;-65
2021/07/10 10:23:00;;;;;;;10.37;8.30;;;19.40;75.90;;;;;;5113191;28;20054;-65
2021/07/10 10:25:27;;;;;;;9.70;8.70;;;19.30;76.30;;;;;;5114000;28;20052;-66
2021/07/10 10:27:53;;;;;;;12.20;9.93;;;19.30;76.70;;;;;;5114201;28;20409;-66
2021/07/10 10:30:23;;;;;;;13.17;9.47;;;19.30;76.20;;;;;;5113553;28;20139;-66
2021/07/10 10:32:50;;;;;;;12.00;10.63;;;19.30;75.60;;;;;;5113996;28;20058;-66
2021/07/10 10:35:18;;;;;;;11.40;9.43;;;19.30;75.60;;;;;;5113528;28;20051;-66
2021/07/10 10:37:45;;;;;;;11.03;9.57;;;19.40;75.80;;;;;;5113707;28;20055;-66
2021/07/10 10:40:20;;;;;;;11.47;10.27;;;19.40;75.70;;;;;;5113447;28;20047;-67
2021/07/10 10:42:54;;;;;;;11.23;8.60;;;19.40;75.20;;;;;;5114074;28;20122;-66
2021/07/10 10:45:36;;;;;;;10.47;8.90;;;19.30;75.20;;;;;;5112964;28;20361;-67
2021/07/10 10:48:03;;;;;;;11.57;10.37;;;19.40;75.40;;;;;;5113889;28;20135;-66
2021/07/10 10:50:37;;;;;;;9.77;8.73;;;19.50;74.60;;;;;;5113760;28;20195;-66
2021/07/10 10:53:05;;;;;;;9.93;8.90;;;19.60;74.40;;;;;;5113116;28;20056;-67
2021/07/10 10:55:31;;;;;;;9.87;8.87;;;19.80;73.70;;;;;;5114148;27;20092;-67
2021/07/10 10:58:25;;;;;;;11.00;9.63;;;20.00;73.80;;;;;;5114107;28;20047;-66
2021/07/10 11:01:03;;;;;;;10.13;8.57;;;20.20;72.70;;;;;;5106476;28;20051;-67
2021/07/10 11:03:42;;;;;;;10.83;9.40;;;20.40;72.20;;;;;;5113746;28;20384;-67
2021/07/10 11:06:30;;;;;;;10.90;8.77;;;20.50;72.10;;;;;;5112635;28;20040;-67
2021/07/10 11:08:56;;;;;;;12.27;8.63;;;20.60;71.50;;;;;;5113596;28;20385;-66
2021/07/10 11:11:27;;;;;;;10.77;9.33;;;20.70;71.60;;;;;;5113181;28;20051;-67
2021/07/10 11:13:56;;;;;;;;;;;20.80;70.50;;;;;;5113078;28;20051;-67
2021/07/10 11:16:22;;;;;;;10.83;8.37;;;20.90;70.30;;;;;;5113500;28;20303;-67
2021/07/10 11:18:49;;;;;;;9.53;7.93;;;21.00;71.00;;;;;;5113186;27;20054;-67
2021/07/10 11:26:47;;;;;;;12.90;9.37;;;21.50;70.50;;;;;;5101642;28;20047;-67
2021/07/10 11:29:18;;;;;;;10.33;9.03;;;21.60;71.30;;;;;;5113177;28;20051;-67
2021/07/10 11:31:44;;;;;;;10.98;9.88;;;21.60;69.70;;;;;;5113284;28;20441;-67
2021/07/10 11:34:12;;;;;;;11.13;10.02;;;21.70;69.90;;;;;;5111754;28;20125;-67
2021/07/10 11:36:41;;;;;;;12.43;9.73;;;21.60;69.20;;;;;;5113498;28;20051;-67
2021/07/10 11:39:26;;;;;;;11.65;10.45;;;21.50;69.20;;;;;;5113123;28;20398;-66
2021/07/10 11:42:22;;;;;;;10.93;9.40;;;21.40;69.20;;;;;;5112091;28;20054;-66
2021/07/10 11:44:54;;;;;;;10.00;8.88;;;21.30;70.00;;;;;;5113173;28;20059;-67
2021/07/10 11:47:47;;;;;;;9.75;8.63;;;21.10;71.10;;;;;;5112059;28;20108;-67
2021/07/10 11:50:40;;;;;;;10.90;9.10;;;21.00;72.30;;;;;;5112619;27;20063;-67
2021/07/10 11:53:11;;;;;;;10.03;8.67;;;21.10;71.70;;;;;;5110206;28;20044;-67
2021/07/10 11:55:43;;;;;;;11.02;9.35;;;21.00;71.80;;;;;;5111907;28;20048;-67
2021/07/10 11:58:11;;;;;;;10.77;9.63;;;21.00;71.70;;;;;;5112453;28;20063;-67
2021/07/10 12:00:38;;;;;;;13.13;10.60;;;20.90;71.70;;;;;;5112574;28;20051;-66
2021/07/10 12:03:14;;;;;;;11.73;9.37;;;20.90;72.00;;;;;;5111513;28;20489;-64
2021/07/10 12:05:39;;;;;;;13.35;10.60;;;20.90;72.00;;;;;;5112663;28;20107;-64
2021/07/10 12:08:05;;;;;;;13.97;11.10;;;20.80;71.80;;;;;;5112736;28;20482;-64
2021/07/10 12:10:36;;;;;;;12.80;11.30;;;20.80;71.20;;;;;;5111357;28;20074;-64
2021/07/10 12:13:07;;;;;;;12.43;10.52;;;20.80;71.20;;;;;;5111887;28;20124;-67
2021/07/10 12:15:39;;;;;;;13.85;10.18;;;20.70;71.40;;;;;;5110776;28;20063;-67
2021/07/10 12:18:07;;;;;;;11.17;10.07;;;20.60;71.80;;;;;;5111534;28;20050;-66
2021/07/10 12:20:43;;;;;;;10.83;9.73;;;20.60;72.50;;;;;;5111933;28;20472;-67
2021/07/10 12:23:16;;;;;;;10.87;9.77;;;20.60;72.90;;;;;;5111234;28;20071;-67
2021/07/10 12:25:52;;;;;;;12.52;10.88;;;20.80;73.20;;;;;;5111978;28;20043;-66
2021/07/10 12:28:33;;;;;;;11.53;10.00;;;21.00;73.30;;;;;;5112001;28;20108;-67
2021/07/10 12:31:04;;;;;;;14.00;11.70;;;21.40;72.20;;;;;;5110941;28;20048;-67
2021/07/10 12:33:35;;;;;;;13.68;10.60;;;21.60;71.00;;;;;;5111642;28;20058;-67
2021/07/10 12:36:09;;;;;;;13.67;12.27;;;21.80;70.50;;;;;;5112329;28;20052;-67
2021/07/10 12:38:36;;;;;;;14.07;11.77;;;21.80;69.40;;;;;;5111295;28;20044;-67